createdAt,value
2019-04-25T00:00:02.044Z,999.99
2019-04-25T00:01:01.203Z,999.93
2019-04-25T00:02:01.860Z,999.91
2019-04-25T00:03:01.267Z,999.95
2019-04-25T00:04:02.010Z,1000.04
2019-04-25T00:05:01.361Z,1000.14
2019-04-25T00:06:02.360Z,1000.16
2019-04-25T00:07:02.238Z,1000.25
2019-04-25T00:08:01.502Z,1000.20
2019-04-25T00:09:01.887Z,1000.17
2019-04-25T00:10:01.605Z,1000.16
2019-04-25T00:11:01.711Z,1000.22
2019-04-25T00:12:02.273Z,1000.27
2019-04-25T00:13:01.691Z,1000.29
2019-04-25T00:14:01.546Z,1000.29
2019-04-25T00:15:01.431Z,1000.31
2019-04-25T00:16:01.844Z,1000.30
2019-04-25T00:17:01.721Z,1000.32
2019-04-25T00:18:02.250Z,1000.34
2019-04-25T00:19:01.889Z,1000.37
2019-04-25T00:20:01.595Z,1000.26
2019-04-25T00:21:01.281Z,1000.28
2019-04-25T00:22:01.977Z,1000.29
2019-04-25T00:23:02.008Z,1000.26
2019-04-25T00:24:02.535Z,1000.26
2019-04-25T00:25:12.955Z,1000.24
2019-04-25T00:26:01.797Z,1000.27
2019-04-25T00:27:02.207Z,1000.28
2019-04-25T00:28:01.803Z,1000.30
2019-04-25T00:29:01.972Z,1000.30
2019-04-25T00:30:01.680Z,1000.31
2019-04-25T00:31:02.115Z,1000.34
2019-04-25T00:32:01.676Z,1000.29
2019-04-25T00:33:02.055Z,1000.21
2019-04-25T00:34:02.185Z,1000.24
2019-04-25T00:35:01.870Z,1000.26
2019-04-25T00:36:02.059Z,1000.33
2019-04-25T00:37:02.369Z,1000.34
2019-04-25T00:38:02.270Z,1000.48
2019-04-25T00:39:02.019Z,1000.49
2019-04-25T00:40:01.487Z,1000.47
2019-04-25T00:41:01.701Z,1000.40
2019-04-25T00:42:02.183Z,1000.34
2019-04-25T00:43:01.583Z,1000.27
2019-04-25T00:44:02.296Z,1000.23
2019-04-25T00:45:02.209Z,1000.20
2019-04-25T00:46:01.493Z,1000.22
2019-04-25T00:47:02.295Z,1000.30
2019-04-25T00:48:03.946Z,1000.27
2019-04-25T00:49:00.551Z,1000.35
2019-04-25T00:50:02.157Z,1000.38
2019-04-25T00:51:01.919Z,1000.40
2019-04-25T00:52:01.927Z,1000.37
2019-04-25T00:53:01.211Z,1000.38
2019-04-25T00:54:02.356Z,1000.40
2019-04-25T00:55:01.900Z,1000.36
2019-04-25T00:56:01.482Z,1000.40
2019-04-25T00:57:02.081Z,1000.41
2019-04-25T00:58:01.356Z,1000.41
2019-04-25T00:59:01.970Z,1000.39
2019-04-25T01:00:01.857Z,1000.45
2019-04-25T01:01:02.025Z,1000.45
2019-04-25T01:02:01.464Z,1000.45
2019-04-25T01:03:01.614Z,1000.38
2019-04-25T01:04:01.952Z,1000.42
2019-04-25T01:05:01.815Z,1000.51
2019-04-25T01:06:03.387Z,1000.48
2019-04-25T01:07:01.480Z,1000.45
2019-04-25T01:08:02.038Z,1000.50
2019-04-25T01:09:01.545Z,1000.46
2019-04-25T01:10:02.003Z,1000.46
2019-04-25T01:11:01.668Z,1000.44
2019-04-25T01:12:03.890Z,1000.43
2019-04-25T01:13:01.375Z,1000.48
2019-04-25T01:14:01.730Z,1000.45
2019-04-25T01:15:01.642Z,1000.45
2019-04-25T01:16:02.128Z,1000.47
2019-04-25T01:17:01.717Z,1000.55
2019-04-25T01:18:01.221Z,1000.60
2019-04-25T01:19:00.310Z,1000.65
2019-04-25T01:20:00.212Z,1000.66
2019-04-25T01:21:00.194Z,1000.65
2019-04-25T01:22:00.181Z,1000.69
2019-04-25T01:23:00.938Z,1000.70
2019-04-25T01:24:00.167Z,1000.72
2019-04-25T01:25:00.140Z,1000.78
2019-04-25T01:26:00.176Z,1000.68
2019-04-25T01:27:00.123Z,1000.73
2019-04-25T01:28:00.127Z,1000.73
2019-04-25T01:29:00.128Z,1000.72
2019-04-25T01:30:00.093Z,1000.69
2019-04-25T01:31:00.071Z,1000.64
2019-04-25T01:32:00.070Z,1000.68
2019-04-25T01:33:00.070Z,1000.65
2019-04-25T01:34:00.073Z,1000.66
2019-04-25T01:35:00.458Z,1000.63
2019-04-25T01:36:00.020Z,1000.66
2019-04-25T01:37:00.016Z,1000.60
2019-04-25T01:38:00.003Z,1000.66
2019-04-25T01:39:00.012Z,1000.66
2019-04-25T01:39:59.979Z,1000.62
2019-04-25T01:41:00.001Z,1000.54
2019-04-25T01:41:59.958Z,1000.50
2019-04-25T01:42:59.937Z,1000.56
2019-04-25T01:43:59.949Z,1000.56
2019-04-25T01:44:59.910Z,1000.55
2019-04-25T01:45:59.910Z,1000.58
2019-04-25T01:46:59.910Z,1000.61
2019-04-25T01:47:59.890Z,1000.63
2019-04-25T01:48:59.890Z,1000.68
2019-04-25T01:49:59.863Z,1000.69
2019-04-25T01:50:59.860Z,1000.70
2019-04-25T01:51:59.852Z,1000.76
2019-04-25T01:52:59.849Z,1000.79
2019-04-25T01:53:59.845Z,1000.76
2019-04-25T01:54:59.798Z,1000.72
2019-04-25T01:56:05.030Z,1000.72
2019-04-25T01:57:00.795Z,1000.74
2019-04-25T01:57:59.771Z,1000.70
2019-04-25T01:59:01.516Z,1000.66
2019-04-25T01:59:59.785Z,1000.59
2019-04-25T02:00:59.746Z,1000.66
2019-04-25T02:01:59.744Z,1000.65
2019-04-25T02:02:59.713Z,1000.62
2019-04-25T02:03:59.730Z,1000.53
2019-04-25T02:05:00.265Z,1000.51
2019-04-25T02:05:59.731Z,1000.46
2019-04-25T02:06:59.669Z,1000.55
2019-04-25T02:07:59.678Z,1000.53
2019-04-25T02:08:59.651Z,1000.54
2019-04-25T02:09:59.659Z,1000.60
2019-04-25T02:10:59.640Z,1000.59
2019-04-25T02:11:59.627Z,1000.62
2019-04-25T02:12:59.910Z,1000.61
2019-04-25T02:13:59.609Z,1000.58
2019-04-25T02:14:59.937Z,1000.70
2019-04-25T02:15:59.578Z,1000.69
2019-04-25T02:17:00.312Z,1000.79
2019-04-25T02:18:00.357Z,1000.87
2019-04-25T02:18:59.839Z,1000.80
2019-04-25T02:19:59.795Z,1000.82
2019-04-25T02:21:01.373Z,1000.91
2019-04-25T02:21:59.904Z,1000.98
2019-04-25T02:23:00.006Z,1001.08
2019-04-25T02:24:00.184Z,1001.12
2019-04-25T02:25:00.269Z,1001.13
2019-04-25T02:26:13.883Z,1001.16
2019-04-25T02:27:00.843Z,1001.18
2019-04-25T02:28:01.454Z,1001.24
2019-04-25T02:28:59.430Z,1001.24
2019-04-25T02:29:59.438Z,1001.22
2019-04-25T02:31:02.275Z,1001.24
2019-04-25T02:32:02.852Z,1001.35
2019-04-25T02:33:04.388Z,1001.31
2019-04-25T02:34:03.075Z,1001.37
2019-04-25T02:35:02.704Z,1001.41
2019-04-25T02:36:02.592Z,1001.46
2019-04-25T02:37:03.963Z,1001.50
2019-04-25T02:38:02.417Z,1001.53
2019-04-25T02:39:01.666Z,1001.52
2019-04-25T02:40:01.636Z,1001.55
2019-04-25T02:41:01.962Z,1001.58
2019-04-25T02:42:01.148Z,1001.59
2019-04-25T02:43:01.698Z,1001.64
2019-04-25T02:44:02.975Z,1001.63
2019-04-25T02:45:02.306Z,1001.63
2019-04-25T02:46:00.505Z,1001.61
2019-04-25T02:47:00.976Z,1001.60
2019-04-25T02:47:59.709Z,1001.66
2019-04-25T02:49:01.381Z,1001.71
2019-04-25T02:50:00.836Z,1001.75
2019-04-25T02:50:59.714Z,1001.74
2019-04-25T02:52:00.766Z,1001.75
2019-04-25T02:52:59.818Z,1001.76
2019-04-25T02:53:59.715Z,1001.80
2019-04-25T02:55:00.422Z,1001.76
2019-04-25T02:55:59.743Z,1001.72
2019-04-25T02:56:59.953Z,1001.69
2019-04-25T02:58:00.309Z,1001.66
2019-04-25T02:59:00.172Z,1001.65
2019-04-25T03:00:00.158Z,1001.64
2019-04-25T03:01:09.378Z,1001.62
2019-04-25T03:02:00.724Z,1001.68
2019-04-25T03:02:59.224Z,1001.69
2019-04-25T03:03:59.482Z,1001.63
2019-04-25T03:04:59.700Z,1001.66
2019-04-25T03:05:59.559Z,1001.63
2019-04-25T03:07:00.125Z,1001.62
2019-04-25T03:07:59.868Z,1001.60
2019-04-25T03:09:00.265Z,1001.65
2019-04-25T03:09:59.563Z,1001.70
2019-04-25T03:10:59.854Z,1001.68
2019-04-25T03:11:59.929Z,1001.74
2019-04-25T03:13:00.245Z,1001.77
2019-04-25T03:14:00.397Z,1001.75
2019-04-25T03:15:00.134Z,1001.74
2019-04-25T03:16:00.441Z,1001.77
2019-04-25T03:17:00.335Z,1001.79
2019-04-25T03:17:59.869Z,1001.80
2019-04-25T03:18:59.375Z,1001.82
2019-04-25T03:19:59.855Z,1001.82
2019-04-25T03:20:59.742Z,1001.85
2019-04-25T03:22:00.265Z,1001.84
2019-04-25T03:23:00.048Z,1001.91
2019-04-25T03:23:59.953Z,1001.91
2019-04-25T03:25:00.319Z,1001.90
2019-04-25T03:25:59.215Z,1001.93
2019-04-25T03:26:59.398Z,1001.87
2019-04-25T03:27:59.538Z,1001.90
2019-04-25T03:28:58.816Z,1001.88
2019-04-25T03:29:59.632Z,1001.90
2019-04-25T03:31:01.411Z,1001.88
2019-04-25T03:31:58.757Z,1001.92
2019-04-25T03:32:58.725Z,1001.87
2019-04-25T03:33:58.712Z,1001.85
2019-04-25T03:34:58.707Z,1001.94
2019-04-25T03:35:58.693Z,1001.94
2019-04-25T03:36:58.700Z,1001.97
2019-04-25T03:37:58.669Z,1001.99
2019-04-25T03:38:58.655Z,1002.00
2019-04-25T03:39:58.655Z,1002.00
2019-04-25T03:40:58.638Z,1002.00
2019-04-25T03:41:58.646Z,1002.05
2019-04-25T03:42:58.657Z,1002.11
2019-04-25T03:43:58.594Z,1002.14
2019-04-25T03:44:58.583Z,1002.10
2019-04-25T03:45:58.579Z,1002.09
2019-04-25T03:46:58.594Z,1002.08
2019-04-25T03:47:58.572Z,1002.10
2019-04-25T03:48:58.545Z,1002.13
2019-04-25T03:49:58.544Z,1002.19
2019-04-25T03:50:58.524Z,1002.19
2019-04-25T03:51:58.529Z,1002.24
2019-04-25T03:52:58.499Z,1002.17
2019-04-25T03:53:58.503Z,1002.20
2019-04-25T03:54:58.480Z,1002.25
2019-04-25T03:55:58.485Z,1002.27
2019-04-25T03:56:58.487Z,1002.29
2019-04-25T03:57:58.465Z,1002.30
2019-04-25T03:58:58.435Z,1002.34
2019-04-25T03:59:58.425Z,1002.37
2019-04-25T04:00:58.418Z,1002.43
2019-04-25T04:02:01.075Z,1002.41
2019-04-25T04:02:58.388Z,1002.44
2019-04-25T04:03:58.394Z,1002.49
2019-04-25T04:04:58.384Z,1002.56
2019-04-25T04:05:58.353Z,1002.54
2019-04-25T04:06:58.365Z,1002.59
2019-04-25T04:07:58.336Z,1002.62
2019-04-25T04:08:58.332Z,1002.63
2019-04-25T04:09:58.313Z,1002.64
2019-04-25T04:10:58.319Z,1002.71
2019-04-25T04:11:58.299Z,1002.73
2019-04-25T04:12:58.290Z,1002.86
2019-04-25T04:13:58.271Z,1002.86
2019-04-25T04:14:58.245Z,1002.85
2019-04-25T04:15:58.236Z,1002.86
2019-04-25T04:16:58.244Z,1002.89
2019-04-25T04:17:58.216Z,1002.91
2019-04-25T04:18:58.229Z,1002.92
2019-04-25T04:19:58.216Z,1002.93
2019-04-25T04:20:58.203Z,1002.98
2019-04-25T04:21:58.212Z,1002.95
2019-04-25T04:22:58.155Z,1002.99
2019-04-25T04:23:58.145Z,1002.96
2019-04-25T04:24:58.132Z,1003.02
2019-04-25T04:25:58.151Z,1003.02
2019-04-25T04:27:03.692Z,1002.97
2019-04-25T04:27:59.110Z,1002.95
2019-04-25T04:28:58.112Z,1002.97
2019-04-25T04:29:58.086Z,1002.99
2019-04-25T04:30:58.083Z,1003.01
2019-04-25T04:31:58.093Z,1003.04
2019-04-25T04:32:58.049Z,1003.11
2019-04-25T04:33:58.055Z,1003.16
2019-04-25T04:34:58.047Z,1003.16
2019-04-25T04:35:58.010Z,1003.25
2019-04-25T04:36:58.029Z,1003.23
2019-04-25T04:37:57.997Z,1003.27
2019-04-25T04:38:57.993Z,1003.27
2019-04-25T04:39:57.991Z,1003.30
2019-04-25T04:40:57.971Z,1003.29
2019-04-25T04:41:57.975Z,1003.37
2019-04-25T04:42:57.953Z,1003.40
2019-04-25T04:43:57.946Z,1003.38
2019-04-25T04:44:57.933Z,1003.37
2019-04-25T04:45:57.920Z,1003.37
2019-04-25T04:46:57.916Z,1003.45
2019-04-25T04:47:57.894Z,1003.42
2019-04-25T04:48:57.867Z,1003.45
2019-04-25T04:49:57.855Z,1003.47
2019-04-25T04:50:57.868Z,1003.50
2019-04-25T04:51:57.871Z,1003.53
2019-04-25T04:52:57.869Z,1003.53
2019-04-25T04:53:57.829Z,1003.53
2019-04-25T04:55:06.244Z,1003.55
2019-04-25T04:55:58.795Z,1003.53
2019-04-25T04:56:57.783Z,1003.51
2019-04-25T04:57:57.804Z,1003.60
2019-04-25T04:58:57.770Z,1003.61
2019-04-25T04:59:57.764Z,1003.63
2019-04-25T05:00:57.765Z,1003.67
2019-04-25T05:01:57.727Z,1003.73
2019-04-25T05:02:57.746Z,1003.74
2019-04-25T05:03:57.720Z,1003.76
2019-04-25T05:04:57.704Z,1003.76
2019-04-25T05:05:57.716Z,1003.80
2019-04-25T05:06:57.674Z,1003.77
2019-04-25T05:07:57.678Z,1003.77
2019-04-25T05:08:57.647Z,1003.75
2019-04-25T05:09:57.643Z,1003.73
2019-04-25T05:10:57.640Z,1003.73
2019-04-25T05:11:57.638Z,1003.87
2019-04-25T05:12:57.629Z,1003.84
2019-04-25T05:13:57.596Z,1003.84
2019-04-25T05:14:57.601Z,1003.87
2019-04-25T05:15:57.570Z,1003.90
2019-04-25T05:16:57.562Z,1003.93
2019-04-25T05:17:57.580Z,1003.93
2019-04-25T05:18:57.541Z,1003.95
2019-04-25T05:19:57.527Z,1003.91
2019-04-25T05:20:57.515Z,1003.99
2019-04-25T05:21:57.498Z,1004.03
2019-04-25T05:22:57.532Z,1004.03
2019-04-25T05:23:57.488Z,1004.03
2019-04-25T05:24:57.472Z,1004.03
2019-04-25T05:25:57.480Z,1004.07
2019-04-25T05:26:57.442Z,1004.12
2019-04-25T05:28:02.519Z,1004.07
2019-04-25T05:28:58.452Z,1004.12
2019-04-25T05:29:57.418Z,1004.18
2019-04-25T05:30:57.420Z,1004.17
2019-04-25T05:31:57.403Z,1004.25
2019-04-25T05:32:57.385Z,1004.33
2019-04-25T05:33:57.383Z,1004.30
2019-04-25T05:34:57.375Z,1004.41
2019-04-25T05:35:57.356Z,1004.32
2019-04-25T05:36:57.349Z,1004.36
2019-04-25T05:37:57.338Z,1004.38
2019-04-25T05:38:57.340Z,1004.36
2019-04-25T05:39:57.320Z,1004.28
2019-04-25T05:40:57.313Z,1004.32
2019-04-25T05:41:57.288Z,1004.37
2019-04-25T05:42:57.281Z,1004.41
2019-04-25T05:43:57.300Z,1004.45
2019-04-25T05:44:57.254Z,1004.51
2019-04-25T05:45:57.255Z,1004.53
2019-04-25T05:46:57.228Z,1004.46
2019-04-25T05:47:57.227Z,1004.47
2019-04-25T05:48:57.248Z,1004.52
2019-04-25T05:49:57.216Z,1004.48
2019-04-25T05:50:57.180Z,1004.51
2019-04-25T05:51:57.178Z,1004.54
2019-04-25T05:52:57.192Z,1004.55
2019-04-25T05:53:57.160Z,1004.54
2019-04-25T05:54:57.149Z,1004.56
2019-04-25T05:55:57.151Z,1004.59
2019-04-25T05:56:57.132Z,1004.56
2019-04-25T05:57:57.115Z,1004.54
2019-04-25T05:58:57.149Z,1004.56
2019-04-25T05:59:57.084Z,1004.61
2019-04-25T06:00:57.080Z,1004.64
2019-04-25T06:01:57.071Z,1004.67
2019-04-25T06:02:57.068Z,1004.74
2019-04-25T06:03:57.295Z,1004.80
2019-04-25T06:04:57.058Z,1004.85
2019-04-25T06:05:57.035Z,1004.84
2019-04-25T06:06:57.029Z,1004.91
2019-04-25T06:07:57.031Z,1004.84
2019-04-25T06:08:57.001Z,1004.92
2019-04-25T06:09:57.010Z,1004.88
2019-04-25T06:10:56.968Z,1004.92
2019-04-25T06:11:56.965Z,1004.92
2019-04-25T06:12:56.949Z,1004.96
2019-04-25T06:13:56.964Z,1004.98
2019-04-25T06:14:56.940Z,1004.97
2019-04-25T06:15:56.921Z,1004.84
2019-04-25T06:16:56.912Z,1004.89
2019-04-25T06:17:56.906Z,1004.90
2019-04-25T06:18:56.899Z,1004.84
2019-04-25T06:19:56.896Z,1005.00
2019-04-25T06:20:56.881Z,1005.02
2019-04-25T06:21:56.859Z,1005.00
2019-04-25T06:22:56.843Z,1005.08
2019-04-25T06:23:56.828Z,1005.13
2019-04-25T06:24:56.828Z,1005.17
2019-04-25T06:25:56.812Z,1005.18
2019-04-25T06:26:56.798Z,1005.28
2019-04-25T06:27:59.078Z,1005.22
2019-04-25T06:28:59.567Z,1005.22
2019-04-25T06:29:59.142Z,1005.16
2019-04-25T06:30:56.749Z,1005.31
2019-04-25T06:32:06.007Z,1005.29
2019-04-25T06:32:57.737Z,1005.23
2019-04-25T06:33:56.720Z,1005.25
2019-04-25T06:34:56.742Z,1005.27
2019-04-25T06:35:56.958Z,1005.29
2019-04-25T06:36:56.692Z,1005.31
2019-04-25T06:37:56.676Z,1005.30
2019-04-25T06:38:56.673Z,1005.33
2019-04-25T06:39:56.653Z,1005.30
2019-04-25T06:40:56.674Z,1005.21
2019-04-25T06:41:56.647Z,1005.22
2019-04-25T06:42:56.622Z,1005.26
2019-04-25T06:43:56.605Z,1005.36
2019-04-25T06:44:56.626Z,1005.36
2019-04-25T06:45:56.587Z,1005.38
2019-04-25T06:46:56.590Z,1005.41
2019-04-25T06:47:56.573Z,1005.38
2019-04-25T06:48:56.571Z,1005.36
2019-04-25T06:49:56.591Z,1005.41
2019-04-25T06:50:56.535Z,1005.28
2019-04-25T06:51:56.520Z,1005.44
2019-04-25T06:52:56.521Z,1005.33
2019-04-25T06:53:56.510Z,1005.47
2019-04-25T06:54:56.521Z,1005.39
2019-04-25T06:55:56.510Z,1005.38
2019-04-25T06:56:56.505Z,1005.34
2019-04-25T06:58:08.894Z,1005.31
2019-04-25T06:58:57.524Z,1005.46
2019-04-25T06:59:56.452Z,1005.39
2019-04-25T07:01:00.191Z,1005.42
2019-04-25T07:01:56.462Z,1005.43
2019-04-25T07:02:56.415Z,1005.49
2019-04-25T07:03:56.402Z,1005.38
2019-04-25T07:04:56.390Z,1005.40
2019-04-25T07:05:56.415Z,1005.41
2019-04-25T07:06:56.373Z,1005.43
2019-04-25T07:07:56.367Z,1005.43
2019-04-25T07:08:56.348Z,1005.44
2019-04-25T07:09:56.360Z,1005.51
2019-04-25T07:10:56.355Z,1005.43
2019-04-25T07:11:56.322Z,1005.54
2019-04-25T07:12:56.312Z,1005.50
2019-04-25T07:13:56.299Z,1005.59
2019-04-25T07:14:56.283Z,1005.61
2019-04-25T07:15:56.286Z,1005.66
2019-04-25T07:16:56.251Z,1005.72
2019-04-25T07:17:56.254Z,1005.73
2019-04-25T07:18:56.252Z,1005.73
2019-04-25T07:19:56.249Z,1005.74
2019-04-25T07:20:56.251Z,1005.83
2019-04-25T07:21:56.242Z,1005.80
2019-04-25T07:22:56.216Z,1005.84
2019-04-25T07:23:56.208Z,1005.71
2019-04-25T07:24:56.190Z,1005.77
2019-04-25T07:25:56.216Z,1005.79
2019-04-25T07:26:56.161Z,1005.80
2019-04-25T07:27:56.146Z,1005.87
2019-04-25T07:28:56.145Z,1005.91
2019-04-25T07:29:56.140Z,1005.80
2019-04-25T07:30:56.148Z,1005.87
2019-04-25T07:31:56.114Z,1005.90
2019-04-25T07:32:56.108Z,1005.91
2019-04-25T07:33:56.097Z,1005.93
2019-04-25T07:34:56.078Z,1005.96
2019-04-25T07:35:57.067Z,1005.91
2019-04-25T07:36:56.076Z,1005.99
2019-04-25T07:37:56.039Z,1006.00
2019-04-25T07:39:05.762Z,1006.08
2019-04-25T07:39:57.029Z,1006.10
2019-04-25T07:40:56.012Z,1006.10
2019-04-25T07:41:56.014Z,1006.09
2019-04-25T07:42:56.005Z,1006.13
2019-04-25T07:43:55.995Z,1006.16
2019-04-25T07:44:56.006Z,1006.13
2019-04-25T07:45:55.974Z,1006.09
2019-04-25T07:46:55.979Z,1006.16
2019-04-25T07:47:56.004Z,1006.11
2019-04-25T07:48:55.938Z,1006.14
2019-04-25T07:49:55.942Z,1006.13
2019-04-25T07:50:55.920Z,1006.19
2019-04-25T07:51:55.925Z,1006.16
2019-04-25T07:52:55.904Z,1006.20
2019-04-25T07:53:55.902Z,1006.21
2019-04-25T07:54:55.870Z,1006.27
2019-04-25T07:55:55.860Z,1006.26
2019-04-25T07:56:55.880Z,1006.23
2019-04-25T07:57:55.846Z,1006.26
2019-04-25T07:58:55.841Z,1006.25
2019-04-25T07:59:55.816Z,1006.21
2019-04-25T08:00:55.814Z,1006.23
2019-04-25T08:01:55.816Z,1006.24
2019-04-25T08:02:55.810Z,1006.26
2019-04-25T08:03:55.798Z,1006.29
2019-04-25T08:04:55.871Z,1006.29
2019-04-25T08:05:55.777Z,1006.24
2019-04-25T08:06:55.822Z,1006.22
2019-04-25T08:07:55.742Z,1006.24
2019-04-25T08:08:55.733Z,1006.24
2019-04-25T08:09:55.754Z,1006.23
2019-04-25T08:10:55.725Z,1006.22
2019-04-25T08:11:55.755Z,1006.19
2019-04-25T08:12:55.714Z,1006.25
2019-04-25T08:13:55.687Z,1006.21
2019-04-25T08:14:55.695Z,1006.26
2019-04-25T08:15:55.677Z,1006.25
2019-04-25T08:16:55.712Z,1006.25
2019-04-25T08:17:55.657Z,1006.23
2019-04-25T08:18:55.646Z,1006.26
2019-04-25T08:19:55.630Z,1006.29
2019-04-25T08:20:55.625Z,1006.28
2019-04-25T08:21:55.606Z,1006.33
2019-04-25T08:22:58.437Z,1006.36
2019-04-25T08:23:55.594Z,1006.37
2019-04-25T08:24:55.594Z,1006.41
2019-04-25T08:25:55.587Z,1006.44
2019-04-25T08:26:55.576Z,1006.45
2019-04-25T08:27:55.573Z,1006.49
2019-04-25T08:28:57.712Z,1006.42
2019-04-25T08:29:55.554Z,1006.43
2019-04-25T08:30:55.517Z,1006.40
2019-04-25T08:31:55.531Z,1006.41
2019-04-25T08:32:55.513Z,1006.40
2019-04-25T08:33:55.488Z,1006.38
2019-04-25T08:34:55.496Z,1006.39
2019-04-25T08:36:04.432Z,1006.44
2019-04-25T08:36:56.492Z,1006.47
2019-04-25T08:37:55.465Z,1006.45
2019-04-25T08:38:55.440Z,1006.41
2019-04-25T08:39:55.437Z,1006.39
2019-04-25T08:40:55.796Z,1006.47
2019-04-25T08:41:55.411Z,1006.47
2019-04-25T08:42:55.423Z,1006.41
2019-04-25T08:43:55.408Z,1006.37
2019-04-25T08:44:55.386Z,1006.32
2019-04-25T08:45:55.381Z,1006.31
2019-04-25T08:46:55.386Z,1006.36
2019-04-25T08:47:55.383Z,1006.33
2019-04-25T08:48:55.365Z,1006.35
2019-04-25T08:49:55.346Z,1006.38
2019-04-25T08:50:55.322Z,1006.37
2019-04-25T08:51:55.820Z,1006.36
2019-04-25T08:52:55.347Z,1006.33
2019-04-25T08:53:55.302Z,1006.37
2019-04-25T08:54:57.467Z,1006.43
2019-04-25T08:55:55.289Z,1006.44
2019-04-25T08:56:55.277Z,1006.40
2019-04-25T08:57:55.302Z,1006.51
2019-04-25T08:59:04.004Z,1006.52
2019-04-25T08:59:56.239Z,1006.49
2019-04-25T09:01:00.888Z,1006.51
2019-04-25T09:01:56.223Z,1006.50
2019-04-25T09:02:55.236Z,1006.52
2019-04-25T09:03:55.201Z,1006.53
2019-04-25T09:04:55.180Z,1006.53
2019-04-25T09:05:55.216Z,1006.49
2019-04-25T09:06:55.182Z,1006.49
2019-04-25T09:07:55.173Z,1006.55
2019-04-25T09:08:55.170Z,1006.51
2019-04-25T09:09:55.163Z,1006.56
2019-04-25T09:10:55.138Z,1006.55
2019-04-25T09:11:55.125Z,1006.60
2019-04-25T09:12:55.117Z,1006.58
2019-04-25T09:13:55.135Z,1006.58
2019-04-25T09:14:55.090Z,1006.51
2019-04-25T09:15:55.094Z,1006.54
2019-04-25T09:16:55.096Z,1006.55
2019-04-25T09:17:55.075Z,1006.46
2019-04-25T09:18:55.089Z,1006.50
2019-04-25T09:19:55.052Z,1006.47
2019-04-25T09:20:55.044Z,1006.42
2019-04-25T09:21:55.027Z,1006.42
2019-04-25T09:22:55.019Z,1006.47
2019-04-25T09:23:55.027Z,1006.44
2019-04-25T09:24:55.007Z,1006.38
2019-04-25T09:25:55.022Z,1006.34
2019-04-25T09:26:54.979Z,1006.38
2019-04-25T09:27:54.968Z,1006.41
2019-04-25T09:28:54.964Z,1006.38
2019-04-25T09:29:54.953Z,1006.38
2019-04-25T09:30:54.956Z,1006.43
2019-04-25T09:31:54.966Z,1006.46
2019-04-25T09:32:54.921Z,1006.51
2019-04-25T09:33:54.911Z,1006.54
2019-04-25T09:34:55.533Z,1006.51
2019-04-25T09:35:54.905Z,1006.44
2019-04-25T09:36:54.895Z,1006.44
2019-04-25T09:37:54.886Z,1006.43
2019-04-25T09:38:54.878Z,1006.45
2019-04-25T09:39:55.834Z,1006.35
2019-04-25T09:40:54.851Z,1006.35
2019-04-25T09:41:54.842Z,1006.38
2019-04-25T09:42:54.836Z,1006.41
2019-04-25T09:43:54.938Z,1006.46
2019-04-25T09:44:54.826Z,1006.41
2019-04-25T09:45:54.801Z,1006.45
2019-04-25T09:46:54.788Z,1006.49
2019-04-25T09:47:54.786Z,1006.42
2019-04-25T09:48:54.778Z,1006.41
2019-04-25T09:49:54.788Z,1006.46
2019-04-25T09:50:54.755Z,1006.46
2019-04-25T09:51:54.745Z,1006.46
2019-04-25T09:52:54.741Z,1006.48
2019-04-25T09:53:54.731Z,1006.45
2019-04-25T09:54:54.747Z,1006.41
2019-04-25T09:55:54.730Z,1006.43
2019-04-25T09:56:55.291Z,1006.33
2019-04-25T09:57:54.698Z,1006.33
2019-04-25T09:58:54.683Z,1006.30
2019-04-25T09:59:54.676Z,1006.25
2019-04-25T10:00:54.659Z,1006.21
2019-04-25T10:01:54.652Z,1006.25
2019-04-25T10:02:55.529Z,1006.22
2019-04-25T10:03:54.646Z,1006.20
2019-04-25T10:04:55.166Z,1006.17
2019-04-25T10:05:54.647Z,1006.22
2019-04-25T10:06:54.620Z,1006.23
2019-04-25T10:07:54.601Z,1006.21
2019-04-25T10:08:54.601Z,1006.18
2019-04-25T10:09:54.777Z,1006.16
2019-04-25T10:10:55.474Z,1006.10
2019-04-25T10:11:54.825Z,1006.13
2019-04-25T10:12:54.882Z,1006.11
2019-04-25T10:13:54.538Z,1006.13
2019-04-25T10:14:54.538Z,1006.13
2019-04-25T10:15:54.680Z,1006.17
2019-04-25T10:16:54.523Z,1006.12
2019-04-25T10:17:54.514Z,1006.14
2019-04-25T10:18:54.494Z,1006.06
2019-04-25T10:19:54.476Z,1006.01
2019-04-25T10:20:54.531Z,1006.01
2019-04-25T10:21:55.231Z,1006.05
2019-04-25T10:22:54.458Z,1006.09
2019-04-25T10:23:54.445Z,1006.06
2019-04-25T10:25:00.258Z,1006.05
2019-04-25T10:25:55.443Z,1006.17
2019-04-25T10:26:54.783Z,1006.14
2019-04-25T10:27:54.420Z,1006.16
2019-04-25T10:28:54.407Z,1006.14
2019-04-25T10:29:57.065Z,1006.12
2019-04-25T10:30:55.591Z,1006.21
2019-04-25T10:31:55.757Z,1006.22
2019-04-25T10:32:54.753Z,1006.14
2019-04-25T10:33:54.586Z,1006.17
2019-04-25T10:34:54.370Z,1006.14
2019-04-25T10:36:00.579Z,1006.11
2019-04-25T10:36:55.331Z,1006.09
2019-04-25T10:37:55.020Z,1006.01
2019-04-25T10:39:04.071Z,1006.03
2019-04-25T10:39:55.712Z,1006.05
2019-04-25T10:40:54.308Z,1006.01
2019-04-25T10:41:54.298Z,1006.05
2019-04-25T10:42:54.285Z,1006.05
2019-04-25T10:43:56.020Z,1006.03
2019-04-25T10:44:56.579Z,1006.08
2019-04-25T10:45:55.125Z,1006.01
2019-04-25T10:46:54.641Z,1005.95
2019-04-25T10:47:55.254Z,1006.00
2019-04-25T10:48:56.107Z,1005.98
2019-04-25T10:49:55.441Z,1006.02
2019-04-25T10:50:55.733Z,1006.01
2019-04-25T10:51:54.202Z,1006.03
2019-04-25T10:52:54.344Z,1005.99
2019-04-25T10:53:55.095Z,1006.10
2019-04-25T10:54:54.339Z,1006.04
2019-04-25T10:55:54.135Z,1006.00
2019-04-25T10:56:54.116Z,1006.06
2019-04-25T10:57:55.079Z,1005.98
2019-04-25T10:58:54.959Z,1006.06
2019-04-25T11:00:05.411Z,1006.06
2019-04-25T11:00:55.095Z,1006.07
2019-04-25T11:01:55.115Z,1006.07
2019-04-25T11:02:54.071Z,1006.01
2019-04-25T11:03:55.621Z,1005.98
2019-04-25T11:04:54.506Z,1006.00
2019-04-25T11:05:55.788Z,1006.05
2019-04-25T11:06:55.109Z,1006.06
2019-04-25T11:07:55.730Z,1006.04
2019-04-25T11:08:56.526Z,1006.05
2019-04-25T11:09:55.129Z,1006.10
2019-04-25T11:10:54.937Z,1006.04
2019-04-25T11:11:54.019Z,1006.03
2019-04-25T11:12:55.109Z,1006.03
2019-04-25T11:13:54.531Z,1006.06
2019-04-25T11:14:56.101Z,1006.03
2019-04-25T11:15:55.860Z,1005.99
2019-04-25T11:16:55.221Z,1005.94
2019-04-25T11:17:55.010Z,1005.97
2019-04-25T11:18:54.864Z,1005.99
2019-04-25T11:19:54.321Z,1005.98
2019-04-25T11:20:55.028Z,1006.03
2019-04-25T11:21:53.933Z,1006.01
2019-04-25T11:22:53.904Z,1006.03
2019-04-25T11:23:55.350Z,1006.04
2019-04-25T11:24:53.870Z,1006.07
2019-04-25T11:25:54.248Z,1006.03
2019-04-25T11:26:55.185Z,1006.01
2019-04-25T11:27:54.190Z,1005.96
2019-04-25T11:28:54.473Z,1006.00
2019-04-25T11:30:08.188Z,1005.95
2019-04-25T11:30:55.602Z,1005.96
2019-04-25T11:31:53.801Z,1006.01
2019-04-25T11:32:54.724Z,1006.01
2019-04-25T11:33:54.524Z,1006.03
2019-04-25T11:34:54.901Z,1005.98
2019-04-25T11:35:56.337Z,1006.01
2019-04-25T11:36:54.536Z,1005.96
2019-04-25T11:37:54.800Z,1005.98
2019-04-25T11:38:53.815Z,1005.93
2019-04-25T11:39:54.964Z,1005.97
2019-04-25T11:40:55.134Z,1005.95
2019-04-25T11:41:55.524Z,1005.91
2019-04-25T11:42:54.607Z,1005.90
2019-04-25T11:43:55.247Z,1005.91
2019-04-25T11:44:54.480Z,1005.81
2019-04-25T11:45:54.104Z,1005.87
2019-04-25T11:46:53.653Z,1005.84
2019-04-25T11:47:54.403Z,1005.86
2019-04-25T11:48:54.803Z,1005.85
2019-04-25T11:49:54.645Z,1005.86
2019-04-25T11:50:55.767Z,1005.87
2019-04-25T11:51:54.463Z,1005.86
2019-04-25T11:52:54.743Z,1005.87
2019-04-25T11:53:54.570Z,1005.84
2019-04-25T11:54:54.821Z,1005.83
2019-04-25T11:55:54.652Z,1005.86
2019-04-25T11:56:54.734Z,1005.83
2019-04-25T11:57:54.951Z,1005.85
2019-04-25T11:58:54.993Z,1005.88
2019-04-25T11:59:54.571Z,1005.85
2019-04-25T12:00:57.634Z,1005.85
2019-04-25T12:01:56.084Z,1005.89
2019-04-25T12:02:54.941Z,1005.87
2019-04-25T12:03:55.758Z,1005.87
2019-04-25T12:04:54.890Z,1005.91